Time;durP1;ratioP1;P1;durP2;ratioP2;P2;SDS_P1;SDS_P2;PMS_P1;PMS_P2;Temp;Humidity;BMP_temperature;BMP_pressure;BME280_temperature;BME280_humidity;BME280_pressure;Samples;Min_cycle;Max_cycle;Signal;HPM_P1;HPM_P2
2022/08/02 00:02:08;;;;;;;0.60;0.60;;;21.70;99.90;;;;;;5056195;28;20738;-62
2022/08/02 00:04:37;;;;;;;0.98;0.52;;;21.70;99.90;;;;;;5053766;28;20226;-62
2022/08/02 00:07:04;;;;;;;0.50;0.50;;;21.70;99.90;;;;;;5054602;28;20714;-60
2022/08/02 00:09:30;;;;;;;0.60;0.60;;;21.60;99.90;;;;;;5052491;28;20692;-61
2022/08/02 00:11:57;;;;;;;0.50;0.50;;;21.60;99.90;;;;;;5052019;28;20648;-61
2022/08/02 00:14:24;;;;;;;0.50;0.50;;;21.70;99.90;;;;;;5050159;28;20192;-61
2022/08/02 00:16:51;;;;;;;0.45;0.45;;;21.60;99.90;;;;;;5054743;28;20326;-60
2022/08/02 00:19:18;;;;;;;0.73;0.73;;;21.60;99.90;;;;;;5062327;28;20295;-62
2022/08/02 00:21:46;;;;;;;0.57;0.57;;;21.70;99.90;;;;;;5057908;28;20291;-61
2022/08/02 00:24:13;;;;;;;0.63;0.63;;;21.60;99.90;;;;;;5059485;28;20292;-61
2022/08/02 00:26:40;;;;;;;0.40;0.40;;;21.60;99.90;;;;;;5053222;28;20200;-61
2022/08/02 00:29:07;;;;;;;0.55;0.55;;;21.50;99.90;;;;;;5052832;28;20279;-61
2022/08/02 00:31:34;;;;;;;0.50;0.50;;;21.60;99.90;;;;;;5054395;28;20247;-62
2022/08/02 00:34:01;;;;;;;0.40;0.40;;;21.50;99.90;;;;;;5052792;28;20306;-61
2022/08/02 00:36:28;;;;;;;0.50;0.50;;;21.60;99.90;;;;;;5048289;28;20287;-62
2022/08/02 00:38:56;;;;;;;0.60;0.60;;;21.60;99.90;;;;;;5052843;28;20212;-61
2022/08/02 00:41:23;;;;;;;0.80;0.47;;;21.60;99.90;;;;;;5053844;28;20291;-61
2022/08/02 00:43:52;;;;;;;0.40;0.40;;;21.60;99.90;;;;;;5056019;28;20204;-61
2022/08/02 00:46:20;;;;;;;0.40;0.40;;;21.60;99.90;;;;;;5054889;28;20314;-61
2022/08/02 00:48:47;;;;;;;0.50;0.50;;;21.60;99.90;;;;;;5057706;28;20210;-61
2022/08/02 00:51:15;;;;;;;0.50;0.50;;;21.60;99.90;;;;;;5055832;28;20220;-62
2022/08/02 00:53:42;;;;;;;0.60;0.60;;;21.60;99.90;;;;;;5054276;28;20249;-61
2022/08/02 00:56:10;;;;;;;0.70;0.70;;;21.50;99.90;;;;;;5055380;28;20632;-61
2022/08/02 00:58:37;;;;;;;0.60;0.60;;;21.50;99.90;;;;;;5051246;28;20191;-61
2022/08/02 01:01:04;;;;;;;0.60;0.60;;;21.40;99.90;;;;;;5051689;28;20204;-62
2022/08/02 01:03:31;;;;;;;0.63;0.63;;;21.30;99.90;;;;;;5050996;28;20593;-63
2022/08/02 01:05:58;;;;;;;0.50;0.50;;;21.40;99.90;;;;;;5053375;28;20233;-61
2022/08/02 01:08:25;;;;;;;0.60;0.60;;;21.30;99.90;;;;;;5051477;28;20662;-61
2022/08/02 01:10:51;;;;;;;0.40;0.40;;;21.30;99.90;;;;;;5053046;28;20631;-61
2022/08/02 01:13:21;;;;;;;0.50;0.50;;;21.40;99.90;;;;;;5051302;28;20334;-62
2022/08/02 01:15:53;;;;;;;0.50;0.50;;;21.30;99.90;;;;;;5050787;28;20204;-60
2022/08/02 01:18:27;;;;;;;0.60;0.60;;;21.20;99.90;;;;;;5053773;28;20195;-61
2022/08/02 01:21:23;;;;;;;0.60;0.60;;;21.00;99.90;;;;;;5051781;28;20212;-61
2022/08/02 01:24:09;;;;;;;0.70;0.70;;;21.00;99.90;;;;;;5050877;28;20724;-62
2022/08/02 01:26:42;;;;;;;0.55;0.55;;;21.00;99.90;;;;;;5050890;28;20617;-61
2022/08/02 01:29:17;;;;;;;0.60;0.60;;;21.00;99.90;;;;;;5050510;28;20265;-62
2022/08/02 01:31:48;;;;;;;0.50;0.50;;;21.00;99.90;;;;;;5055373;28;20254;-61
2022/08/02 01:34:20;;;;;;;0.70;0.70;;;20.90;99.90;;;;;;5053507;28;20291;-61
2022/08/02 01:36:53;;;;;;;0.60;0.60;;;20.90;99.90;;;;;;5057529;28;20202;-62
2022/08/02 01:39:26;;;;;;;0.65;0.65;;;20.80;99.90;;;;;;5054187;28;20211;-61
2022/08/02 01:41:54;;;;;;;0.50;0.50;;;20.90;99.90;;;;;;5054986;28;20232;-61
2022/08/02 01:44:26;;;;;;;0.80;0.80;;;20.90;99.90;;;;;;5054930;28;20315;-60
2022/08/02 01:46:56;;;;;;;0.63;0.63;;;20.80;99.90;;;;;;5060364;28;20226;-61
2022/08/02 01:49:27;;;;;;;0.70;0.70;;;20.70;99.90;;;;;;5059279;28;20191;-61
2022/08/02 01:54:41;;;;;;;0.40;0.40;;;20.50;99.90;;;;;;5054219;28;20198;-61
2022/08/02 01:57:12;;;;;;;0.60;0.60;;;20.50;99.90;;;;;;5052228;28;20229;-61
2022/08/02 01:59:43;;;;;;;0.70;0.70;;;20.50;99.90;;;;;;5054981;28;20708;-61
2022/08/02 02:02:12;;;;;;;0.60;0.60;;;20.60;99.90;;;;;;5055264;28;20730;-62
2022/08/02 02:04:40;;;;;;;0.63;0.63;;;20.50;99.90;;;;;;5053197;28;20224;-60
2022/08/02 02:07:08;;;;;;;0.60;0.60;;;20.50;99.90;;;;;;5056446;28;20247;-61
2022/08/02 02:09:38;;;;;;;0.50;0.50;;;20.40;99.90;;;;;;5056082;28;20730;-62
2022/08/02 02:12:07;;;;;;;0.60;0.60;;;20.50;99.90;;;;;;5054085;28;20680;-61
2022/08/02 02:14:35;;;;;;;0.50;0.50;;;20.40;99.90;;;;;;5057157;28;20222;-62
2022/08/02 02:17:05;;;;;;;0.60;0.60;;;20.20;99.90;;;;;;5053475;28;20204;-61
2022/08/02 02:19:35;;;;;;;0.60;0.60;;;20.20;99.90;;;;;;5056360;28;20231;-62
2022/08/02 02:22:02;;;;;;;0.55;0.55;;;20.10;99.90;;;;;;5055245;28;20311;-61
2022/08/02 02:24:29;;;;;;;0.70;0.70;;;20.00;99.90;;;;;;5062863;28;20271;-62
2022/08/02 02:26:58;;;;;;;1.20;0.82;;;20.00;99.90;;;;;;5065446;28;20853;-61
2022/08/02 02:29:29;;;;;;;0.52;0.50;;;20.20;99.90;;;;;;5067713;28;20204;-61
2022/08/02 02:31:58;;;;;;;0.60;0.60;;;20.20;99.90;;;;;;5060464;28;20301;-61
2022/08/02 02:34:29;;;;;;;0.50;0.50;;;20.30;99.90;;;;;;5059482;28;20216;-62
2022/08/02 02:37:00;;;;;;;0.70;0.70;;;20.30;99.90;;;;;;5060385;28;20228;-62
2022/08/02 02:39:29;;;;;;;0.43;0.43;;;20.40;99.90;;;;;;5055901;28;20214;-61
2022/08/02 02:42:01;;;;;;;0.73;0.73;;;20.30;99.90;;;;;;5054885;28;20220;-61
2022/08/02 02:44:29;;;;;;;0.70;0.70;;;20.30;99.90;;;;;;5058549;28;20196;-61
2022/08/02 02:46:57;;;;;;;0.50;0.50;;;20.30;99.90;;;;;;5056358;28;20227;-62
2022/08/02 02:49:26;;;;;;;0.82;0.82;;;20.20;99.90;;;;;;5056190;28;20206;-61
2022/08/02 02:51:55;;;;;;;0.52;0.52;;;20.30;99.90;;;;;;5057474;28;20296;-61
2022/08/02 02:54:23;;;;;;;0.60;0.60;;;20.40;99.90;;;;;;5056070;28;20299;-61
2022/08/02 02:56:50;;;;;;;0.60;0.60;;;20.30;99.90;;;;;;5058519;28;20282;-61
2022/08/02 02:59:18;;;;;;;0.50;0.50;;;20.30;99.90;;;;;;5056796;28;20200;-62
2022/08/02 03:01:45;;;;;;;0.63;0.63;;;20.40;99.90;;;;;;5055399;28;20223;-62
2022/08/02 03:04:13;;;;;;;0.43;0.43;;;20.30;99.90;;;;;;5056458;28;20290;-61
2022/08/02 03:06:41;;;;;;;0.55;0.55;;;20.20;99.90;;;;;;5063861;28;20257;-60
2022/08/02 03:09:09;;;;;;;0.55;0.55;;;20.20;99.90;;;;;;5053586;28;20208;-61
2022/08/02 03:11:37;;;;;;;0.60;0.60;;;20.10;99.90;;;;;;5048653;28;20249;-61
2022/08/02 03:14:08;;;;;;;0.70;0.70;;;20.00;99.90;;;;;;5053184;28;20197;-62
2022/08/02 03:16:42;;;;;;;0.63;0.63;;;20.00;99.90;;;;;;5054957;28;20192;-60
2022/08/02 03:19:09;;;;;;;0.68;0.68;;;20.00;99.90;;;;;;5056101;28;20291;-61
2022/08/02 03:21:36;;;;;;;0.60;0.60;;;20.00;99.90;;;;;;5052997;28;20251;-61
2022/08/02 03:24:05;;;;;;;0.70;0.70;;;20.10;99.90;;;;;;5058183;28;20211;-60
2022/08/02 03:26:32;;;;;;;0.65;0.65;;;20.00;99.90;;;;;;5055131;28;20355;-61
2022/08/02 03:28:59;;;;;;;0.57;0.57;;;20.00;99.90;;;;;;5055810;28;20290;-61
2022/08/02 03:31:26;;;;;;;0.52;0.52;;;19.90;99.90;;;;;;5053968;28;20884;-61
2022/08/02 03:33:54;;;;;;;0.60;0.60;;;19.90;99.90;;;;;;5055776;28;20299;-62
2022/08/02 03:36:23;;;;;;;0.60;0.60;;;19.90;99.90;;;;;;5058449;28;20204;-62
2022/08/02 03:38:51;;;;;;;0.45;0.40;;;20.00;99.90;;;;;;5057014;28;20224;-61
2022/08/02 03:41:22;;;;;;;0.40;0.40;;;20.00;99.90;;;;;;5059299;28;20311;-60
2022/08/02 03:43:50;;;;;;;0.80;0.80;;;20.00;99.90;;;;;;5057700;28;20239;-61
2022/08/02 03:46:19;;;;;;;0.60;0.60;;;20.00;99.90;;;;;;5057671;28;20307;-60
2022/08/02 03:48:47;;;;;;;0.50;0.50;;;19.90;99.90;;;;;;5055204;28;20294;-61
2022/08/02 03:51:15;;;;;;;0.60;0.60;;;19.90;99.90;;;;;;5052239;28;20223;-61
2022/08/02 03:53:43;;;;;;;0.65;0.65;;;19.80;99.90;;;;;;5062530;28;20250;-60
2022/08/02 03:56:10;;;;;;;0.50;0.50;;;19.80;99.90;;;;;;5052840;28;20238;-61
2022/08/02 03:58:38;;;;;;;0.50;0.50;;;19.90;99.90;;;;;;5052599;28;20207;-61
2022/08/02 04:01:05;;;;;;;0.60;0.60;;;19.90;99.90;;;;;;5051889;28;20204;-62
2022/08/02 04:03:32;;;;;;;0.55;0.55;;;20.00;99.90;;;;;;5051691;28;20238;-61
2022/08/02 04:05:59;;;;;;;0.60;0.60;;;20.00;99.90;;;;;;5052619;28;20222;-61
2022/08/02 04:08:26;;;;;;;0.63;0.63;;;20.00;99.90;;;;;;5052161;28;20295;-60
2022/08/02 04:13:39;;;;;;;0.45;0.45;;;19.90;99.90;;;;;;5051947;28;20198;-61
2022/08/02 04:16:11;;;;;;;0.50;0.50;;;19.90;99.90;;;;;;5053169;28;20206;-62
2022/08/02 04:18:43;;;;;;;0.60;0.60;;;20.00;99.90;;;;;;5052662;28;20202;-61
2022/08/02 04:21:14;;;;;;;0.90;0.85;;;19.90;99.90;;;;;;5059513;28;20245;-60
2022/08/02 04:23:43;;;;;;;0.45;0.45;;;19.80;99.90;;;;;;5054354;28;20418;-62
2022/08/02 04:26:11;;;;;;;0.60;0.60;;;19.80;99.90;;;;;;5053488;28;20232;-61
2022/08/02 04:28:41;;;;;;;0.57;0.57;;;19.80;99.90;;;;;;5053162;28;20223;-61
2022/08/02 04:31:08;;;;;;;0.65;0.65;;;19.70;99.90;;;;;;5053175;28;20287;-61
2022/08/02 04:33:36;;;;;;;0.60;0.60;;;19.70;99.90;;;;;;5052686;28;20295;-60
2022/08/02 04:36:05;;;;;;;0.60;0.60;;;19.70;99.90;;;;;;5050508;28;20211;-62
2022/08/02 04:38:32;;;;;;;0.70;0.70;;;19.80;99.90;;;;;;5054779;28;20217;-61
2022/08/02 04:40:58;;;;;;;0.60;0.60;;;19.80;99.90;;;;;;5054558;28;20204;-61
2022/08/02 04:43:25;;;;;;;0.70;0.70;;;19.70;99.90;;;;;;5052854;28;20203;-60
2022/08/02 04:45:54;;;;;;;0.52;0.52;;;19.70;99.90;;;;;;5056014;28;20331;-60
2022/08/02 04:48:22;;;;;;;0.60;0.60;;;19.70;99.90;;;;;;5050009;28;20311;-61
2022/08/02 04:50:49;;;;;;;0.50;0.50;;;19.80;99.90;;;;;;5055799;28;20753;-61
2022/08/02 04:53:16;;;;;;;0.68;0.68;;;19.80;99.90;;;;;;5051112;28;20227;-61
2022/08/02 04:55:43;;;;;;;0.50;0.50;;;19.80;99.90;;;;;;5065718;28;20263;-61
2022/08/02 04:58:10;;;;;;;0.68;0.68;;;19.90;99.90;;;;;;5065912;28;20232;-61
2022/08/02 05:00:37;;;;;;;0.65;0.65;;;19.90;99.90;;;;;;5066692;28;20204;-62
2022/08/02 05:03:05;;;;;;;0.57;0.57;;;19.90;99.90;;;;;;5060226;28;20306;-61
2022/08/02 05:05:32;;;;;;;0.70;0.70;;;19.90;99.90;;;;;;5054545;28;20204;-62
2022/08/02 05:07:59;;;;;;;0.65;0.65;;;19.90;99.90;;;;;;5057888;28;20218;-61
2022/08/02 05:10:26;;;;;;;0.70;0.70;;;20.00;99.90;;;;;;5055874;28;20290;-60
2022/08/02 05:12:53;;;;;;;0.80;0.80;;;20.10;99.90;;;;;;5072332;22;20226;-63
2022/08/02 05:15:19;;;;;;;0.50;0.50;;;20.20;99.90;;;;;;5074637;28;20343;-63
2022/08/02 05:17:47;;;;;;;0.45;0.45;;;20.20;99.90;;;;;;5074299;28;20270;-63
2022/08/02 05:20:16;;;;;;;0.63;0.63;;;20.20;99.90;;;;;;5073615;28;20286;-63
2022/08/02 05:22:43;;;;;;;0.55;0.55;;;20.20;99.90;;;;;;5072001;28;20226;-62
2022/08/02 05:25:11;;;;;;;0.65;0.65;;;20.30;99.90;;;;;;5074796;28;20219;-64
2022/08/02 05:27:38;;;;;;;1.10;0.80;;;20.40;99.90;;;;;;5077035;28;20226;-63
2022/08/02 05:30:06;;;;;;;0.70;0.70;;;20.50;99.90;;;;;;5075507;28;20287;-61
2022/08/02 05:32:33;;;;;;;0.52;0.52;;;20.50;99.90;;;;;;5075393;28;20322;-61
2022/08/02 05:35:01;;;;;;;0.63;0.63;;;20.50;99.90;;;;;;5075298;28;20209;-64
2022/08/02 05:37:30;;;;;;;0.65;0.65;;;20.50;99.90;;;;;;5073866;28;20209;-61
2022/08/02 05:39:57;;;;;;;0.73;0.73;;;20.50;99.90;;;;;;5077685;28;20210;-61
2022/08/02 05:42:24;;;;;;;0.88;0.88;;;20.60;99.90;;;;;;5074035;28;20290;-62
2022/08/02 05:44:51;;;;;;;1.00;1.00;;;20.70;99.90;;;;;;5073414;28;20676;-61
2022/08/02 05:47:18;;;;;;;0.77;0.77;;;20.70;99.90;;;;;;5065517;28;20291;-61
2022/08/02 05:49:45;;;;;;;0.50;0.50;;;20.80;99.90;;;;;;5062010;28;20291;-61
2022/08/02 05:52:17;;;;;;;0.73;0.73;;;20.80;99.90;;;;;;5065067;28;20204;-61
2022/08/02 05:54:54;;;;;;;0.70;0.70;;;20.90;99.90;;;;;;5076350;28;20286;-63
2022/08/02 05:57:31;;;;;;;0.55;0.55;;;20.90;99.90;;;;;;5070101;28;20191;-61
2022/08/02 06:00:06;;;;;;;0.80;0.80;;;20.90;99.90;;;;;;5077346;28;20199;-61
2022/08/02 06:02:59;;;;;;;0.70;0.70;;;21.00;99.90;;;;;;5072330;28;20310;-61
2022/08/02 06:05:28;;;;;;;0.70;0.70;;;21.10;99.90;;;;;;5066156;28;20558;-60
2022/08/02 06:07:59;;;;;;;0.85;0.65;;;21.20;99.90;;;;;;5073414;28;20230;-61
2022/08/02 06:10:29;;;;;;;0.80;0.80;;;21.30;99.90;;;;;;5072145;28;20207;-60
2022/08/02 06:13:05;;;;;;;0.70;0.70;;;21.50;99.90;;;;;;5071714;28;20234;-60
2022/08/02 06:15:32;;;;;;;0.60;0.60;;;21.50;99.90;;;;;;5070152;28;20303;-60
2022/08/02 06:18:00;;;;;;;0.70;0.70;;;21.60;99.90;;;;;;5064514;28;20282;-60
2022/08/02 06:20:34;;;;;;;0.52;0.52;;;21.70;99.90;;;;;;5067586;28;20319;-60
2022/08/02 06:23:02;;;;;;;0.80;0.70;;;21.80;99.90;;;;;;5075900;28;20226;-60
2022/08/02 06:25:31;;;;;;;0.60;0.60;;;21.90;99.90;;;;;;5078561;28;20205;-60
2022/08/02 06:27:59;;;;;;;0.60;0.60;;;22.00;99.90;;;;;;5075092;28;20331;-60
2022/08/02 06:30:26;;;;;;;0.70;0.70;;;22.10;99.90;;;;;;5075715;28;20199;-60
2022/08/02 06:32:54;;;;;;;0.57;0.57;;;22.20;99.90;;;;;;5068799;28;20334;-62
2022/08/02 06:35:21;;;;;;;0.80;0.80;;;22.20;99.90;;;;;;5067788;28;20231;-62
2022/08/02 06:37:52;;;;;;;1.02;0.70;;;22.40;99.90;;;;;;5070446;28;20278;-61
2022/08/02 06:40:26;;;;;;;0.60;0.60;;;22.60;99.90;;;;;;5070837;28;20207;-59
2022/08/02 06:43:10;;;;;;;0.60;0.60;;;22.70;99.90;;;;;;5073828;28;20962;-60
2022/08/02 06:45:37;;;;;;;0.50;0.50;;;22.80;99.90;;;;;;5071914;28;20298;-63
2022/08/02 06:48:05;;;;;;;0.50;0.50;;;22.90;99.90;;;;;;5069434;28;20310;-62
2022/08/02 06:50:33;;;;;;;0.60;0.60;;;23.00;99.90;;;;;;5074283;28;20282;-62
2022/08/02 06:53:00;;;;;;;0.63;0.63;;;23.20;99.90;;;;;;5074800;28;20223;-62
2022/08/02 06:55:28;;;;;;;0.60;0.60;;;23.30;99.90;;;;;;5073037;28;20215;-62
2022/08/02 06:57:56;;;;;;;0.50;0.50;;;23.40;99.90;;;;;;5074612;28;20200;-63
2022/08/02 07:00:23;;;;;;;0.70;0.70;;;23.50;99.90;;;;;;5068363;28;20242;-62
2022/08/02 07:02:50;;;;;;;0.75;0.75;;;23.60;99.90;;;;;;5072532;28;20225;-62
2022/08/02 07:05:17;;;;;;;0.70;0.70;;;23.60;99.90;;;;;;5074100;28;20290;-63
2022/08/02 07:07:45;;;;;;;1.00;0.90;;;23.60;99.90;;;;;;5072369;28;20223;-62
2022/08/02 07:10:13;;;;;;;0.63;0.63;;;23.60;99.90;;;;;;5070792;28;20286;-62
2022/08/02 07:12:40;;;;;;;0.93;0.93;;;23.60;99.90;;;;;;5068339;28;20239;-61
2022/08/02 07:15:11;;;;;;;0.55;0.55;;;23.50;99.90;;;;;;5078122;28;20315;-61
2022/08/02 07:17:38;;;;;;;0.63;0.63;;;23.60;99.90;;;;;;5068209;28;20195;-61
2022/08/02 07:20:06;;;;;;;0.82;0.82;;;23.70;99.90;;;;;;5071458;28;20290;-61
2022/08/02 07:22:33;;;;;;;0.60;0.60;;;23.70;99.90;;;;;;5064863;28;20306;-60
2022/08/02 07:25:01;;;;;;;0.70;0.70;;;23.90;99.90;;;;;;5071510;28;20291;-64
2022/08/02 07:27:29;;;;;;;0.85;0.70;;;24.10;99.90;;;;;;5068916;28;20223;-63
2022/08/02 07:29:56;;;;;;;0.77;0.77;;;24.30;99.90;;;;;;5066903;28;20200;-61
2022/08/02 07:32:26;;;;;;;0.70;0.70;;;24.20;99.90;;;;;;5067860;28;20203;-61
2022/08/02 07:34:53;;;;;;;0.70;0.70;;;24.20;99.90;;;;;;5064654;28;20289;-60
2022/08/02 07:37:21;;;;;;;0.90;0.90;;;24.40;99.90;;;;;;5071501;28;20195;-61
2022/08/02 07:39:48;;;;;;;1.23;0.90;;;24.50;99.90;;;;;;5065369;28;20208;-62
2022/08/02 07:42:15;;;;;;;0.90;0.90;;;24.60;99.90;;;;;;5064786;28;20294;-61
2022/08/02 07:44:42;;;;;;;0.50;0.50;;;24.60;99.90;;;;;;5064467;28;20200;-61
2022/08/02 07:47:09;;;;;;;0.60;0.60;;;24.50;99.90;;;;;;5069602;28;20318;-63
2022/08/02 07:49:37;;;;;;;0.70;0.70;;;24.60;99.90;;;;;;5065252;28;20200;-61
2022/08/02 07:52:04;;;;;;;0.80;0.80;;;24.70;99.90;;;;;;5067098;28;20721;-63
2022/08/02 07:54:31;;;;;;;0.90;0.90;;;24.60;99.90;;;;;;5067081;28;20224;-61
2022/08/02 07:56:59;;;;;;;0.52;0.52;;;24.50;99.90;;;;;;5062386;28;20232;-61
2022/08/02 07:59:27;;;;;;;0.50;0.50;;;24.60;99.90;;;;;;5064717;28;20226;-61
2022/08/02 08:01:54;;;;;;;0.70;0.70;;;24.80;99.90;;;;;;5066461;28;20211;-61
2022/08/02 08:04:21;;;;;;;1.25;0.90;;;24.80;99.90;;;;;;5069375;28;20993;-62
2022/08/02 08:06:51;;;;;;;2.05;0.80;;;24.80;99.90;;;;;;5068597;28;20249;-61
2022/08/02 08:09:18;;;;;;;1.10;0.93;;;25.10;99.90;;;;;;5069908;28;20213;-61
2022/08/02 08:11:45;;;;;;;0.70;0.70;;;25.30;99.90;;;;;;5072275;28;20360;-64
2022/08/02 08:14:12;;;;;;;0.85;0.85;;;25.40;99.90;;;;;;5069971;28;20314;-60
2022/08/02 08:16:39;;;;;;;1.23;0.98;;;25.40;99.90;;;;;;5067597;28;20204;-61
2022/08/02 08:19:06;;;;;;;3.63;0.80;;;25.50;99.90;;;;;;5063732;28;20291;-63
2022/08/02 08:21:34;;;;;;;0.70;0.70;;;25.10;99.90;;;;;;5063743;28;20292;-62
2022/08/02 08:24:03;;;;;;;0.82;0.82;;;25.20;99.90;;;;;;5065888;28;20224;-62
2022/08/02 08:26:30;;;;;;;0.60;0.60;;;25.30;99.90;;;;;;5066963;28;20669;-61
2022/08/02 08:28:57;;;;;;;0.63;0.63;;;25.50;99.90;;;;;;5061790;28;20302;-63
2022/08/02 08:31:24;;;;;;;0.80;0.80;;;25.60;99.90;;;;;;5064077;28;20214;-64
2022/08/02 08:33:51;;;;;;;0.77;0.77;;;25.70;99.90;;;;;;5065201;28;20215;-62
2022/08/02 08:36:20;;;;;;;0.70;0.70;;;25.70;99.90;;;;;;5063660;28;20578;-62
2022/08/02 08:38:47;;;;;;;1.00;0.98;;;25.90;99.90;;;;;;5060842;28;20203;-63
2022/08/02 08:41:17;;;;;;;0.80;0.80;;;26.10;99.90;;;;;;5072607;28;20211;-62
2022/08/02 08:43:45;;;;;;;0.63;0.63;;;26.10;99.90;;;;;;5064874;28;20638;-62
2022/08/02 08:46:20;;;;;;;0.80;0.80;;;26.20;99.90;;;;;;5068328;28;20302;-64
2022/08/02 08:48:50;;;;;;;0.80;0.80;;;26.30;99.90;;;;;;5067551;28;20230;-62
2022/08/02 08:51:22;;;;;;;0.80;0.80;;;26.50;99.90;;;;;;5065991;28;20670;-61
2022/08/02 08:53:53;;;;;;;0.70;0.70;;;26.60;99.90;;;;;;5067928;28;21009;-61
2022/08/02 08:56:22;;;;;;;0.95;0.80;;;26.40;99.90;;;;;;5064833;28;20196;-62
2022/08/02 08:58:49;;;;;;;0.70;0.70;;;26.40;99.90;;;;;;5066543;28;20263;-62
2022/08/02 09:01:16;;;;;;;0.73;0.73;;;26.60;99.90;;;;;;5069779;28;20199;-61
2022/08/02 09:03:44;;;;;;;0.70;0.70;;;26.80;99.90;;;;;;5068928;28;20223;-62
2022/08/02 09:06:11;;;;;;;0.60;0.60;;;27.00;99.90;;;;;;5068071;28;20199;-64
2022/08/02 09:08:38;;;;;;;0.90;0.90;;;27.10;99.90;;;;;;5066550;28;20219;-63
2022/08/02 09:11:14;;;;;;;0.80;0.80;;;27.00;99.90;;;;;;5075926;28;20199;-60
2022/08/02 09:13:50;;;;;;;0.70;0.70;;;26.70;99.90;;;;;;5065756;28;20340;-61
2022/08/02 09:16:28;;;;;;;0.75;0.75;;;26.60;99.90;;;;;;5070663;28;20194;-61
2022/08/02 09:18:55;;;;;;;0.85;0.85;;;26.60;99.90;;;;;;5065688;28;20260;-62
2022/08/02 09:21:23;;;;;;;0.88;0.88;;;26.70;99.90;;;;;;5069873;28;20597;-61
2022/08/02 09:23:54;;;;;;;0.75;0.70;;;26.80;99.90;;;;;;5071912;28;20223;-61
2022/08/02 09:26:23;;;;;;;0.70;0.70;;;26.90;99.90;;;;;;5065907;28;20678;-61
2022/08/02 09:28:59;;;;;;;0.80;0.80;;;27.00;99.90;;;;;;5068760;28;20226;-61
2022/08/02 09:31:27;;;;;;;0.90;0.90;;;27.10;99.90;;;;;;5069647;28;20665;-61
2022/08/02 09:33:55;;;;;;;0.70;0.70;;;27.30;99.90;;;;;;5071657;28;20321;-60
2022/08/02 09:36:24;;;;;;;0.60;0.60;;;27.50;99.90;;;;;;5070346;28;20733;-63
2022/08/02 09:38:56;;;;;;;1.67;0.90;;;27.60;99.90;;;;;;5070006;28;20707;-61
2022/08/02 09:41:24;;;;;;;0.68;0.68;;;27.70;99.90;;;;;;5063908;28;20239;-61
2022/08/02 09:43:54;;;;;;;0.60;0.60;;;27.60;99.90;;;;;;5066903;28;20231;-61
2022/08/02 09:46:22;;;;;;;0.80;0.80;;;27.50;99.90;;;;;;5065862;28;20199;-61
2022/08/02 09:48:52;;;;;;;0.68;0.68;;;27.60;99.90;;;;;;5066115;28;20760;-61
2022/08/02 09:51:23;;;;;;;0.82;0.60;;;27.40;99.90;;;;;;5067517;28;20681;-62
2022/08/02 09:53:52;;;;;;;0.90;0.75;;;27.40;99.90;;;;;;5069896;28;20228;-62
2022/08/02 09:56:20;;;;;;;1.10;0.95;;;27.50;99.90;;;;;;5068176;28;20253;-61
2022/08/02 09:58:47;;;;;;;0.80;0.80;;;27.50;99.90;;;;;;5061677;28;20296;-62
2022/08/02 10:01:16;;;;;;;0.85;0.85;;;27.70;99.90;;;;;;5070283;28;20409;-60
2022/08/02 10:04:02;;;;;;;0.70;0.70;;;28.00;99.90;;;;;;5070699;28;20227;-61
2022/08/02 10:06:29;;;;;;;1.15;0.75;;;28.20;99.90;;;;;;5072069;28;20227;-62
2022/08/02 10:08:57;;;;;;;0.80;0.80;;;28.40;99.90;;;;;;5073896;28;20231;-61
2022/08/02 10:11:25;;;;;;;0.60;0.60;;;28.50;99.90;;;;;;5074402;28;20688;-61
2022/08/02 10:13:52;;;;;;;0.60;0.60;;;28.50;99.90;;;;;;5073257;28;20242;-62
2022/08/02 10:16:23;;;;;;;0.77;0.77;;;28.50;99.90;;;;;;5074902;28;20208;-61
2022/08/02 10:18:51;;;;;;;0.70;0.70;;;28.40;99.90;;;;;;5071342;28;20563;-61
2022/08/02 10:21:28;;;;;;;0.60;0.60;;;28.50;99.90;;;;;;5073234;28;20219;-61
2022/08/02 10:24:05;;;;;;;0.60;0.60;;;28.50;99.90;;;;;;5073864;28;20280;-63
2022/08/02 10:26:33;;;;;;;0.75;0.70;;;28.70;99.90;;;;;;5066002;28;20302;-60
2022/08/02 10:29:00;;;;;;;1.15;0.93;;;28.70;99.90;;;;;;5070059;28;20339;-60
2022/08/02 10:31:41;;;;;;;0.75;0.75;;;28.80;99.90;;;;;;5061620;28;20203;-60
2022/08/02 10:34:14;;;;;;;0.90;0.90;;;28.90;99.90;;;;;;5069017;28;20302;-62
2022/08/02 10:36:42;;;;;;;2.22;0.77;;;28.80;99.90;;;;;;5062619;28;20285;-61
2022/08/02 10:39:10;;;;;;;0.70;0.70;;;28.90;99.90;;;;;;5069846;28;20887;-61
2022/08/02 10:41:42;;;;;;;1.65;0.60;;;29.10;99.90;;;;;;5067980;28;20617;-61
2022/08/02 10:44:19;;;;;;;0.80;0.80;;;29.40;99.90;;;;;;5079023;28;20226;-63
2022/08/02 10:46:47;;;;;;;0.70;0.70;;;29.60;99.90;;;;;;5073240;28;20192;-62
2022/08/02 10:49:16;;;;;;;0.70;0.70;;;29.40;99.90;;;;;;5079550;28;20687;-60
2022/08/02 10:52:07;;;;;;;0.80;0.80;;;29.10;99.90;;;;;;5070363;28;20203;-61
2022/08/02 10:54:36;;;;;;;0.70;0.70;;;28.90;99.90;;;;;;5065383;28;20207;-61
2022/08/02 10:57:14;;;;;;;0.65;0.65;;;29.00;99.90;;;;;;5062257;28;20591;-62
2022/08/02 10:59:41;;;;;;;0.60;0.60;;;29.40;99.90;;;;;;5062794;28;20209;-61
2022/08/02 11:02:10;;;;;;;0.70;0.70;;;29.70;99.90;;;;;;5070972;28;20736;-61
2022/08/02 11:05:04;;;;;;;0.70;0.70;;;29.40;99.90;;;;;;5070751;28;20199;-61
2022/08/02 11:07:37;;;;;;;0.93;0.93;;;29.20;99.90;;;;;;5074442;28;20199;-61
2022/08/02 11:10:43;;;;;;;1.42;0.75;;;29.50;99.90;;;;;;5077982;28;20282;-61
2022/08/02 11:13:14;;;;;;;0.60;0.60;;;29.60;99.90;;;;;;5097042;22;20323;-66
2022/08/02 11:15:50;;;;;;;1.65;0.80;;;29.80;99.90;;;;;;5049112;28;20208;-67
2022/08/02 11:18:20;;;;;;;0.70;0.70;;;29.80;99.90;;;;;;5051566;28;20214;-68
2022/08/02 11:21:07;;;;;;;0.57;0.57;;;29.70;99.90;;;;;;5054971;28;20287;-67
2022/08/02 11:23:36;;;;;;;0.73;0.73;;;29.30;99.90;;;;;;5055727;28;20223;-66
2022/08/02 11:26:24;;;;;;;0.70;0.70;;;29.40;99.90;;;;;;5054314;28;20232;-66
2022/08/02 11:28:51;;;;;;;0.82;0.70;;;29.60;99.90;;;;;;5058272;28;20255;-68
2022/08/02 11:31:18;;;;;;;0.85;0.80;;;29.80;99.90;;;;;;5046420;28;20291;-67
2022/08/02 11:33:49;;;;;;;0.60;0.60;;;30.00;99.90;;;;;;5044980;28;20235;-68
2022/08/02 11:36:17;;;;;;;0.70;0.70;;;30.00;99.90;;;;;;5051843;28;20208;-67
2022/08/02 11:38:44;;;;;;;0.70;0.70;;;30.10;99.90;;;;;;5053266;28;20249;-69
2022/08/02 11:41:19;;;;;;;0.60;0.60;;;30.20;99.90;;;;;;5050661;28;20305;-67
2022/08/02 11:43:46;;;;;;;0.70;0.70;;;30.20;99.90;;;;;;5050478;28;20776;-68
2022/08/02 11:46:14;;;;;;;0.60;0.60;;;30.30;99.90;;;;;;5048877;28;20200;-67
2022/08/02 11:48:42;;;;;;;0.65;0.65;;;30.40;99.90;;;;;;5049238;28;20231;-68
2022/08/02 11:51:12;;;;;;;0.93;0.60;;;30.60;99.90;;;;;;5048787;28;20265;-68
2022/08/02 11:53:46;;;;;;;0.63;0.63;;;30.70;99.90;;;;;;5058706;28;20293;-67
2022/08/02 11:56:14;;;;;;;0.70;0.70;;;30.70;99.90;;;;;;5059873;28;20196;-67
2022/08/02 11:58:42;;;;;;;0.60;0.60;;;30.50;99.90;;;;;;5053378;28;20584;-68
2022/08/02 12:01:09;;;;;;;0.80;0.70;;;30.50;99.90;;;;;;5049465;28;20204;-68
2022/08/02 12:03:38;;;;;;;0.75;0.70;;;30.60;99.90;;;;;;5048700;28;20230;-68
2022/08/02 12:06:06;;;;;;;0.52;0.52;;;30.80;99.90;;;;;;5043270;28;20212;-67
2022/08/02 12:08:37;;;;;;;0.68;0.60;;;30.80;99.90;;;;;;5054551;28;20220;-68
2022/08/02 12:11:04;;;;;;;0.70;0.70;;;31.00;99.90;;;;;;5055106;28;20572;-66
2022/08/02 12:13:43;;;;;;;0.60;0.60;;;31.30;99.90;;;;;;5048848;28;20227;-67
2022/08/02 12:21:39;;;;;;;0.75;0.75;;;31.60;99.90;;;;;;5052289;28;20207;-68
2022/08/02 12:24:08;;;;;;;0.60;0.60;;;31.50;99.90;;;;;;5052239;28;20278;-66
2022/08/02 12:26:42;;;;;;;0.77;0.77;;;31.50;99.90;;;;;;5052587;28;20985;-68
2022/08/02 12:29:09;;;;;;;0.65;0.65;;;31.40;99.90;;;;;;5048651;28;20208;-67
2022/08/02 12:31:40;;;;;;;0.70;0.70;;;31.50;99.90;;;;;;5048737;28;20200;-67
2022/08/02 12:34:13;;;;;;;0.70;0.70;;;31.40;99.90;;;;;;5046655;28;20920;-68
2022/08/02 12:36:41;;;;;;;0.43;0.43;;;31.50;99.90;;;;;;5055639;28;20224;-68
2022/08/02 12:39:13;;;;;;;0.70;0.70;;;31.50;99.90;;;;;;5057317;28;20287;-67
2022/08/02 12:41:40;;;;;;;0.70;0.70;;;31.30;99.90;;;;;;5056815;28;20205;-68
2022/08/02 12:44:15;;;;;;;0.50;0.50;;;31.30;99.90;;;;;;5049083;28;20255;-66
2022/08/02 12:46:42;;;;;;;0.60;0.60;;;31.40;99.90;;;;;;5044635;28;20203;-68
2022/08/02 12:49:16;;;;;;;0.65;0.60;;;31.50;99.90;;;;;;5043770;28;20230;-66
2022/08/02 12:51:43;;;;;;;0.52;0.52;;;31.70;99.90;;;;;;5043879;28;20204;-67
2022/08/02 12:54:18;;;;;;;0.52;0.52;;;31.90;99.90;;;;;;5046763;28;20228;-68
2022/08/02 12:56:45;;;;;;;0.70;0.70;;;31.90;99.90;;;;;;5043408;28;20283;-68
2022/08/02 12:59:12;;;;;;;0.60;0.60;;;31.80;99.90;;;;;;5046278;28;20200;-66
2022/08/02 13:01:40;;;;;;;0.60;0.60;;;31.90;99.90;;;;;;5038269;28;20208;-67
2022/08/02 13:04:08;;;;;;;0.70;0.70;;;32.10;99.90;;;;;;5036667;28;20231;-67
2022/08/02 13:06:35;;;;;;;0.63;0.63;;;32.00;99.90;;;;;;5042228;28;20821;-67
2022/08/02 13:09:03;;;;;;;0.60;0.60;;;31.80;99.90;;;;;;5045131;28;20303;-67
2022/08/02 13:11:31;;;;;;;0.60;0.60;;;31.70;99.90;;;;;;5049320;28;20287;-68